createdAt,value
2019-05-21T00:02:49.527Z,43.67
2019-05-21T00:07:56.031Z,46.60
2019-05-21T00:13:02.343Z,49.73
2019-05-21T00:18:08.578Z,50.03
2019-05-21T00:23:14.997Z,47.13
2019-05-21T00:28:56.534Z,51.70
2019-05-21T00:34:43.963Z,50.20
2019-05-21T00:40:22.761Z,52.53
2019-05-21T00:45:29.074Z,52.43
2019-05-21T00:50:35.324Z,52.73
2019-05-21T00:55:41.843Z,49.13
2019-05-21T01:00:48.247Z,48.53
2019-05-21T01:05:56.431Z,53.80
2019-05-21T01:11:02.896Z,51.30
2019-05-21T01:16:09.550Z,51.40
2019-05-21T01:21:15.947Z,47.57
2019-05-21T01:26:24.336Z,53.00
2019-05-21T01:31:30.555Z,55.87
2019-05-21T01:36:36.976Z,47.87
2019-05-21T01:41:43.401Z,51.47
2019-05-21T01:46:49.961Z,53.20
2019-05-21T01:51:56.641Z,48.70
2019-05-21T01:57:04.298Z,49.50
2019-05-21T02:02:10.677Z,47.98
2019-05-21T02:07:17.172Z,46.58
2019-05-21T02:12:23.525Z,48.78
2019-05-21T02:17:29.838Z,43.07
2019-05-21T02:22:36.246Z,44.03
2019-05-21T02:27:42.749Z,44.58
2019-05-21T02:32:51.000Z,39.00
2019-05-21T02:37:57.536Z,42.57
2019-05-21T02:43:05.692Z,39.92
2019-05-21T02:48:12.043Z,42.57
2019-05-21T02:53:18.459Z,42.23
2019-05-21T02:58:24.781Z,43.03
2019-05-21T03:03:32.157Z,44.27
2019-05-21T03:08:38.692Z,39.75
2019-05-21T03:13:46.856Z,44.00
2019-05-21T03:18:53.109Z,44.97
2019-05-21T03:24:11.517Z,42.33
2019-05-21T03:29:18.449Z,47.80
2019-05-21T03:34:24.797Z,43.63
2019-05-21T03:39:31.139Z,44.55
2019-05-21T03:44:37.455Z,40.60
2019-05-21T03:49:43.708Z,47.00
2019-05-21T03:54:50.286Z,40.63
2019-05-21T03:59:58.009Z,48.95
2019-05-21T04:05:05.007Z,46.20
2019-05-21T04:10:16.906Z,50.97
2019-05-21T04:15:26.673Z,42.83
2019-05-21T04:20:34.691Z,42.87
2019-05-21T04:25:52.652Z,44.70
2019-05-21T04:30:59.150Z,47.43
2019-05-21T04:36:06.826Z,39.13
2019-05-21T04:41:13.216Z,46.93
2019-05-21T04:46:19.846Z,42.63
2019-05-21T04:56:40.179Z,38.17
2019-05-21T05:01:47.865Z,38.50
2019-05-21T05:06:54.311Z,42.10
2019-05-21T05:12:00.600Z,38.53
2019-05-21T05:17:07.083Z,40.13
2019-05-21T05:22:13.870Z,42.48
2019-05-21T05:27:20.348Z,42.75
2019-05-21T05:32:26.838Z,38.03
2019-05-21T05:37:43.149Z,32.83
2019-05-21T05:42:41.750Z,33.03
2019-05-21T05:47:48.185Z,31.87
2019-05-21T05:52:54.589Z,31.13
2019-05-21T05:58:01.217Z,30.77
2019-05-21T06:03:08.525Z,34.83
2019-05-21T06:08:14.826Z,31.60
2019-05-21T06:13:21.544Z,35.92
2019-05-21T06:18:27.926Z,33.50
2019-05-21T06:23:34.440Z,34.80
2019-05-21T06:28:40.847Z,34.35
2019-05-21T06:33:47.203Z,33.87
2019-05-21T06:38:53.446Z,30.53
2019-05-21T06:43:59.642Z,30.23
2019-05-21T06:49:05.850Z,33.60
2019-05-21T06:54:11.994Z,31.87
2019-05-21T06:59:18.275Z,30.50
2019-05-21T07:04:25.272Z,29.87
2019-05-21T07:09:31.500Z,32.08
2019-05-21T07:14:37.754Z,32.60
2019-05-21T07:19:44.029Z,31.50
2019-05-21T07:24:50.288Z,27.52
2019-05-21T07:29:56.528Z,31.48
2019-05-21T07:35:02.739Z,29.03
2019-05-21T07:40:28.012Z,29.73
2019-05-21T07:45:34.276Z,32.37
2019-05-21T07:50:40.487Z,29.92
2019-05-21T07:55:46.714Z,26.37
2019-05-21T08:00:53.099Z,28.90
2019-05-21T08:05:59.528Z,27.73
2019-05-21T08:11:05.985Z,27.03
2019-05-21T08:16:12.296Z,30.60
2019-05-21T08:21:18.601Z,26.80
2019-05-21T08:26:25.004Z,26.80
2019-05-21T08:31:31.262Z,30.87
2019-05-21T08:36:37.689Z,30.57
2019-05-21T08:41:43.963Z,29.80
2019-05-21T08:46:50.244Z,35.47
2019-05-21T08:51:56.460Z,30.80
2019-05-21T08:57:02.785Z,32.50
2019-05-21T09:02:09.140Z,30.37
2019-05-21T09:07:15.677Z,28.05
2019-05-21T09:12:22.014Z,28.17
2019-05-21T09:17:28.268Z,26.40
2019-05-21T09:22:34.625Z,24.63
2019-05-21T09:27:41.179Z,29.57
2019-05-21T09:32:47.649Z,28.33
2019-05-21T09:37:53.808Z,29.40
2019-05-21T09:43:00.220Z,27.00
2019-05-21T09:48:06.588Z,26.97
2019-05-21T09:53:12.878Z,27.93
2019-05-21T09:58:27.146Z,29.53
2019-05-21T10:03:35.304Z,26.90
2019-05-21T10:08:41.515Z,30.20
2019-05-21T10:13:47.773Z,27.73
2019-05-21T10:18:53.940Z,29.10
2019-05-21T10:24:00.093Z,29.50
2019-05-21T10:29:06.316Z,29.65
2019-05-21T10:34:13.469Z,30.43
2019-05-21T10:39:19.857Z,31.42
2019-05-21T10:44:25.941Z,26.63
2019-05-21T10:49:32.168Z,30.27
2019-05-21T10:54:38.564Z,29.45
2019-05-21T10:59:46.002Z,27.77
2019-05-21T11:05:02.085Z,25.37
2019-05-21T11:10:08.728Z,31.42
2019-05-21T11:15:15.925Z,27.13
2019-05-21T11:20:23.458Z,29.03
2019-05-21T11:25:29.783Z,26.30
2019-05-21T11:30:35.971Z,28.07
2019-05-21T11:35:42.401Z,25.37
2019-05-21T11:40:50.971Z,24.00
2019-05-21T11:45:56.614Z,24.12
2019-05-21T11:51:02.866Z,23.77
2019-05-21T11:56:08.985Z,23.27
2019-05-21T12:01:15.408Z,23.07
2019-05-21T12:06:21.647Z,22.15
2019-05-21T12:11:27.897Z,24.47
2019-05-21T12:16:34.085Z,22.70
2019-05-21T12:21:40.294Z,20.60
2019-05-21T12:26:46.572Z,20.10
2019-05-21T12:31:52.760Z,20.50
2019-05-21T12:36:58.998Z,20.00
2019-05-21T12:42:05.428Z,22.60
2019-05-21T12:47:11.906Z,21.63
2019-05-21T12:52:18.363Z,21.23
2019-05-21T12:57:24.693Z,18.50
2019-05-21T13:02:31.251Z,19.37
2019-05-21T13:07:37.656Z,19.20
2019-05-21T13:12:43.914Z,18.70
2019-05-21T13:17:50.202Z,19.57
2019-05-21T13:22:56.476Z,19.07
2019-05-21T13:28:02.761Z,17.77
2019-05-21T13:33:09.176Z,18.87
2019-05-21T13:38:16.568Z,18.25
2019-05-21T13:43:23.031Z,16.87
2019-05-21T13:48:29.512Z,17.47
2019-05-21T13:53:35.829Z,15.87
2019-05-21T13:58:42.333Z,15.87
2019-05-21T14:03:49.181Z,15.40
2019-05-21T14:08:55.456Z,13.85
2019-05-21T14:14:01.703Z,14.53
2019-05-21T14:19:08.168Z,13.37
2019-05-21T14:24:14.405Z,14.90
2019-05-21T14:29:20.618Z,15.83
2019-05-21T14:34:26.839Z,16.67
2019-05-21T14:39:44.475Z,16.40
2019-05-21T14:44:51.670Z,17.43
2019-05-21T14:49:57.921Z,16.30
2019-05-21T14:55:04.694Z,15.40
2019-05-21T15:00:22.368Z,16.75
2019-05-21T15:05:28.699Z,17.03
2019-05-21T15:10:48.122Z,14.87
2019-05-21T15:15:42.823Z,17.27
2019-05-21T15:20:54.161Z,15.40
2019-05-21T15:26:00.554Z,14.28
2019-05-21T15:31:06.884Z,21.87
2019-05-21T15:36:13.183Z,15.33
2019-05-21T15:41:19.959Z,16.07
2019-05-21T15:46:26.400Z,19.53
2019-05-21T15:51:32.718Z,15.43
2019-05-21T15:56:39.077Z,14.60
2019-05-21T16:01:45.342Z,14.90
2019-05-21T16:06:51.613Z,16.43
2019-05-21T16:11:58.177Z,17.80
2019-05-21T16:17:05.234Z,15.70
2019-05-21T16:22:12.766Z,14.30
2019-05-21T16:27:19.103Z,14.27
2019-05-21T16:32:25.532Z,12.60
2019-05-21T16:37:31.912Z,13.83
2019-05-21T16:42:38.143Z,15.00
2019-05-21T16:47:46.707Z,14.67
2019-05-21T16:52:52.547Z,13.07
2019-05-21T16:57:58.953Z,28.73
2019-05-21T17:03:05.626Z,13.13
2019-05-21T17:08:11.970Z,13.27
2019-05-21T17:13:18.312Z,15.73
2019-05-21T17:18:24.568Z,13.32
2019-05-21T17:23:30.915Z,12.20
2019-05-21T17:28:37.130Z,12.60
2019-05-21T17:33:43.354Z,13.83
2019-05-21T17:38:49.581Z,14.60
2019-05-21T17:43:56.009Z,13.07
2019-05-21T17:49:02.247Z,15.40
2019-05-21T17:54:08.869Z,15.45
2019-05-21T17:59:19.808Z,14.37
2019-05-21T18:04:26.541Z,12.27
2019-05-21T18:09:35.989Z,13.43
2019-05-21T18:14:42.355Z,12.57
2019-05-21T18:19:50.220Z,14.60
2019-05-21T18:24:56.648Z,13.07
2019-05-21T18:30:03.975Z,13.53
2019-05-21T18:35:12.255Z,13.73
2019-05-21T18:40:19.343Z,12.60
2019-05-21T18:45:25.744Z,16.83
2019-05-21T18:50:36.383Z,14.77
2019-05-21T18:55:40.805Z,15.32
2019-05-21T19:00:49.230Z,18.48
2019-05-21T19:05:55.681Z,17.23
2019-05-21T19:11:02.367Z,15.20
2019-05-21T19:16:08.820Z,14.17
2019-05-21T19:21:19.682Z,13.25
2019-05-21T19:26:26.119Z,12.07
2019-05-21T19:31:32.611Z,13.03
2019-05-21T19:36:38.808Z,14.23
2019-05-21T19:41:44.912Z,15.00
2019-05-21T19:46:51.313Z,17.00
2019-05-21T19:51:57.508Z,17.93
2019-05-21T19:57:04.227Z,13.50
2019-05-21T20:02:10.519Z,16.52
2019-05-21T20:07:17.590Z,14.73
2019-05-21T20:12:26.325Z,14.70
2019-05-21T20:17:32.725Z,17.30
2019-05-21T20:22:39.816Z,14.60
2019-05-21T20:27:46.412Z,13.37
2019-05-21T20:32:53.427Z,13.50
2019-05-21T20:38:00.232Z,16.23
2019-05-21T20:43:06.739Z,14.43
2019-05-21T20:48:16.565Z,14.57
2019-05-21T20:53:22.747Z,13.83
2019-05-21T20:58:29.971Z,14.27
2019-05-21T21:03:36.881Z,14.77
2019-05-21T21:08:44.252Z,13.33
2019-05-21T21:13:51.862Z,14.40
2019-05-21T21:18:59.485Z,18.17
2019-05-21T21:24:07.913Z,18.40
2019-05-21T21:29:14.220Z,20.03
2019-05-21T21:34:20.581Z,21.02
2019-05-21T21:39:27.826Z,24.13
2019-05-21T21:44:34.560Z,21.13
2019-05-21T21:49:42.796Z,23.20
2019-05-21T21:54:49.014Z,21.30
2019-05-21T21:59:55.810Z,19.83
2019-05-21T22:05:03.191Z,23.20
2019-05-21T22:10:11.121Z,21.73
2019-05-21T22:15:18.215Z,21.02
2019-05-21T22:20:24.865Z,20.63
2019-05-21T22:25:31.133Z,20.03
2019-05-21T22:30:37.916Z,21.75
2019-05-21T22:35:44.204Z,24.63
2019-05-21T22:40:50.439Z,22.97
2019-05-21T22:45:57.142Z,26.07
2019-05-21T22:51:03.690Z,27.50
2019-05-21T22:56:10.042Z,25.82
2019-05-21T23:01:17.364Z,27.60
2019-05-21T23:06:24.076Z,27.27
2019-05-21T23:11:31.517Z,26.73
2019-05-21T23:16:38.021Z,24.47
2019-05-21T23:21:53.522Z,28.03
2019-05-21T23:27:00.307Z,25.45
2019-05-21T23:32:08.098Z,28.73
2019-05-21T23:37:21.232Z,28.37
2019-05-21T23:42:29.874Z,27.03
2019-05-21T23:47:35.907Z,28.47
2019-05-21T23:52:42.160Z,28.03
2019-05-21T23:57:48.556Z,31.27
